Saint David's, Bermuda

3:20 AM AST on February 10, 2016 (GMT -0400)
Bermuda International | | Change Station
CLOSE
Current Station
Airport
Location: St. David's,
Elevation: 10 ft
Nearby Weather Stations

Elev 10 ft 32.36 °N, 64.68 °W | Updated 25 minutes ago

Overcast
Overcast
68 °F
Feels Like 68 °F
N
24
Wind Variable Wind from WSW

Today
High -- | Low -- °F
--% Chance of Precip.
Yesterday
High -- | Low -- °F
Precip. -- in
Pressure 29.89 in
Visibility 6.2 miles
Clouds Few 1900 ft
Mostly Cloudy 4700 ft
Overcast 7000 ft
Dew Point 61 °F
Humidity 78%
Rainfall 0.00 in
Snow Depth Not available.
7:06 AM 5:59 PM
Waxing Crescent, 4% visible
METAR TXKF 100655Z 24021KT 9999 FEW019 BKN047 OVC070 20/16 Q1012
Pressure 29.89 in
Visibility 6.2 miles
Clouds Few 1900 ft
Mostly Cloudy 4700 ft
Overcast 7000 ft
Dew Point 61 °F
Humidity 78%
Rainfall 0.00 in
Snow Depth Not available.
7:06 AM 5:59 PM
Waxing Crescent, 4% visible
METAR TXKF 100655Z 24021KT 9999 FEW019 BKN047 OVC070 20/16 Q1012

10-Day Weather Forecast

No radar image for this location.
×

Almanac

Astronomy

Feb. 10, 2016 Rise Set
Actual Time
Civil Twilight
Nautical Twilight
Astronomical Twilight
Moon
Length of Visible Light
Length of Day
Tomorrow will be .
, % of the Moon is Illuminated

Today's Extremes

Country Highs Country Lows

Community

WunderPhotos

Upload Photos

1,891,826 photos uploaded!

WunderBlog® & News

Nearby

Air Quality

  Air Quality AQ Index Pollutant
Not available.

Snow Depth

Station Depth Elevation

Earthquake Activity

City Distance Mag. Time & Date
Minimum magnitude displayed is 2.5.

Coastal Water Temperatures

Place Temperature

Stations

Nearby Weather Stations

Station Location Temp. Windchill Dew Point Humidity Wind Precip. Elev Updated Type